sensor_id;sensor_type;location;lat;lon;timestamp;P1;durP1;ratioP1;P2;durP2;ratioP2
68300;SDS011;55146;47.468;18.806;2023-04-08T00:01:57;34.40;;;20.10;;
68300;SDS011;55146;47.468;18.806;2023-04-08T00:04:22;33.55;;;18.65;;
68300;SDS011;55146;47.468;18.806;2023-04-08T00:06:47;34.37;;;17.77;;
68300;SDS011;55146;47.468;18.806;2023-04-08T00:09:13;32.47;;;18.93;;
68300;SDS011;55146;47.468;18.806;2023-04-08T00:11:38;31.97;;;18.13;;
68300;SDS011;55146;47.468;18.806;2023-04-08T00:14:04;33.72;;;17.92;;
68300;SDS011;55146;47.468;18.806;2023-04-08T00:16:30;29.17;;;16.30;;
68300;SDS011;55146;47.468;18.806;2023-04-08T00:18:55;31.93;;;16.97;;
68300;SDS011;55146;47.468;18.806;2023-04-08T00:21:21;32.00;;;16.67;;
68300;SDS011;55146;47.468;18.806;2023-04-08T00:23:47;31.77;;;17.58;;
68300;SDS011;55146;47.468;18.806;2023-04-08T00:26:13;33.00;;;17.48;;
68300;SDS011;55146;47.468;18.806;2023-04-08T00:28:38;30.40;;;17.27;;
68300;SDS011;55146;47.468;18.806;2023-04-08T00:31:03;29.37;;;16.17;;
68300;SDS011;55146;47.468;18.806;2023-04-08T00:33:29;34.37;;;17.73;;
68300;SDS011;55146;47.468;18.806;2023-04-08T00:35:54;31.37;;;17.83;;
68300;SDS011;55146;47.468;18.806;2023-04-08T00:38:20;31.93;;;17.03;;
68300;SDS011;55146;47.468;18.806;2023-04-08T00:40:45;33.63;;;18.07;;
68300;SDS011;55146;47.468;18.806;2023-04-08T00:43:11;32.20;;;16.87;;
68300;SDS011;55146;47.468;18.806;2023-04-08T00:45:36;31.07;;;17.70;;
68300;SDS011;55146;47.468;18.806;2023-04-08T00:48:02;32.37;;;17.87;;
68300;SDS011;55146;47.468;18.806;2023-04-08T00:50:28;30.53;;;17.00;;
68300;SDS011;55146;47.468;18.806;2023-04-08T00:52:54;30.58;;;15.82;;
68300;SDS011;55146;47.468;18.806;2023-04-08T00:55:19;32.83;;;18.53;;
68300;SDS011;55146;47.468;18.806;2023-04-08T00:57:44;33.77;;;18.20;;
68300;SDS011;55146;47.468;18.806;2023-04-08T01:00:10;34.70;;;18.30;;
68300;SDS011;55146;47.468;18.806;2023-04-08T01:05:27;31.87;;;16.98;;
68300;SDS011;55146;47.468;18.806;2023-04-08T01:08:17;31.55;;;18.35;;
68300;SDS011;55146;47.468;18.806;2023-04-08T01:10:42;32.67;;;17.93;;
68300;SDS011;55146;47.468;18.806;2023-04-08T01:13:13;31.37;;;18.10;;
68300;SDS011;55146;47.468;18.806;2023-04-08T01:15:42;32.15;;;17.45;;
68300;SDS011;55146;47.468;18.806;2023-04-08T01:18:13;31.02;;;17.05;;
68300;SDS011;55146;47.468;18.806;2023-04-08T01:20:40;31.48;;;17.30;;
68300;SDS011;55146;47.468;18.806;2023-04-08T01:25:55;30.52;;;17.35;;
68300;SDS011;55146;47.468;18.806;2023-04-08T01:28:22;32.10;;;17.73;;
68300;SDS011;55146;47.468;18.806;2023-04-08T01:30:51;31.95;;;17.58;;
68300;SDS011;55146;47.468;18.806;2023-04-08T01:33:20;33.00;;;18.40;;
68300;SDS011;55146;47.468;18.806;2023-04-08T01:35:46;29.85;;;17.10;;
68300;SDS011;55146;47.468;18.806;2023-04-08T01:38:16;31.05;;;16.80;;
68300;SDS011;55146;47.468;18.806;2023-04-08T01:40:43;30.03;;;15.70;;
68300;SDS011;55146;47.468;18.806;2023-04-08T01:43:12;28.65;;;16.15;;
68300;SDS011;55146;47.468;18.806;2023-04-08T01:45:40;29.70;;;16.08;;
68300;SDS011;55146;47.468;18.806;2023-04-08T01:48:07;30.25;;;16.25;;
68300;SDS011;55146;47.468;18.806;2023-04-08T01:50:34;31.35;;;16.67;;
68300;SDS011;55146;47.468;18.806;2023-04-08T01:53:00;29.97;;;16.33;;
68300;SDS011;55146;47.468;18.806;2023-04-08T01:55:27;26.42;;;14.60;;
68300;SDS011;55146;47.468;18.806;2023-04-08T01:57:53;29.33;;;16.43;;
68300;SDS011;55146;47.468;18.806;2023-04-08T02:00:24;29.40;;;16.10;;
68300;SDS011;55146;47.468;18.806;2023-04-08T02:02:52;27.35;;;15.57;;
68300;SDS011;55146;47.468;18.806;2023-04-08T02:05:19;26.15;;;15.63;;
68300;SDS011;55146;47.468;18.806;2023-04-08T02:07:45;31.87;;;15.93;;
68300;SDS011;55146;47.468;18.806;2023-04-08T02:10:11;32.50;;;15.63;;
68300;SDS011;55146;47.468;18.806;2023-04-08T02:12:37;28.70;;;14.70;;
68300;SDS011;55146;47.468;18.806;2023-04-08T02:15:03;28.12;;;14.90;;
68300;SDS011;55146;47.468;18.806;2023-04-08T02:17:33;28.20;;;14.17;;
68300;SDS011;55146;47.468;18.806;2023-04-08T02:20:15;28.77;;;16.42;;
68300;SDS011;55146;47.468;18.806;2023-04-08T02:22:56;28.05;;;14.85;;
68300;SDS011;55146;47.468;18.806;2023-04-08T02:25:31;26.62;;;15.50;;
68300;SDS011;55146;47.468;18.806;2023-04-08T02:28:00;28.13;;;14.83;;
68300;SDS011;55146;47.468;18.806;2023-04-08T02:30:28;28.90;;;14.95;;
68300;SDS011;55146;47.468;18.806;2023-04-08T02:32:55;30.00;;;16.70;;
68300;SDS011;55146;47.468;18.806;2023-04-08T02:35:21;28.25;;;15.93;;
68300;SDS011;55146;47.468;18.806;2023-04-08T02:37:47;28.80;;;15.33;;
68300;SDS011;55146;47.468;18.806;2023-04-08T02:40:28;27.02;;;15.15;;
68300;SDS011;55146;47.468;18.806;2023-04-08T02:42:55;28.33;;;16.15;;
68300;SDS011;55146;47.468;18.806;2023-04-08T02:45:21;31.60;;;16.33;;
68300;SDS011;55146;47.468;18.806;2023-04-08T02:47:51;29.73;;;16.20;;
68300;SDS011;55146;47.468;18.806;2023-04-08T02:50:16;29.67;;;16.53;;
68300;SDS011;55146;47.468;18.806;2023-04-08T02:52:41;26.83;;;14.97;;
68300;SDS011;55146;47.468;18.806;2023-04-08T02:55:08;28.70;;;14.87;;
68300;SDS011;55146;47.468;18.806;2023-04-08T02:57:35;28.75;;;15.43;;
68300;SDS011;55146;47.468;18.806;2023-04-08T03:00:02;30.08;;;16.70;;
68300;SDS011;55146;47.468;18.806;2023-04-08T03:02:28;29.10;;;15.20;;
68300;SDS011;55146;47.468;18.806;2023-04-08T03:04:53;28.67;;;15.73;;
68300;SDS011;55146;47.468;18.806;2023-04-08T03:07:19;28.43;;;15.87;;
68300;SDS011;55146;47.468;18.806;2023-04-08T03:09:44;29.77;;;16.10;;
68300;SDS011;55146;47.468;18.806;2023-04-08T03:12:10;31.50;;;17.00;;
68300;SDS011;55146;47.468;18.806;2023-04-08T03:14:35;29.60;;;16.35;;
68300;SDS011;55146;47.468;18.806;2023-04-08T03:17:00;29.67;;;16.67;;
68300;SDS011;55146;47.468;18.806;2023-04-08T03:19:26;33.93;;;16.83;;
68300;SDS011;55146;47.468;18.806;2023-04-08T03:21:51;30.63;;;16.83;;
68300;SDS011;55146;47.468;18.806;2023-04-08T03:24:16;31.93;;;17.00;;
68300;SDS011;55146;47.468;18.806;2023-04-08T03:26:42;29.13;;;15.77;;
68300;SDS011;55146;47.468;18.806;2023-04-08T03:29:07;30.33;;;16.33;;
68300;SDS011;55146;47.468;18.806;2023-04-08T03:31:33;28.52;;;16.52;;
68300;SDS011;55146;47.468;18.806;2023-04-08T03:34:00;29.65;;;17.23;;
68300;SDS011;55146;47.468;18.806;2023-04-08T03:36:25;31.60;;;16.10;;
68300;SDS011;55146;47.468;18.806;2023-04-08T03:38:51;30.70;;;15.68;;
68300;SDS011;55146;47.468;18.806;2023-04-08T03:41:16;30.03;;;15.93;;
68300;SDS011;55146;47.468;18.806;2023-04-08T03:43:41;27.70;;;15.67;;
68300;SDS011;55146;47.468;18.806;2023-04-08T03:46:07;28.43;;;15.57;;
68300;SDS011;55146;47.468;18.806;2023-04-08T03:48:32;26.80;;;16.03;;
68300;SDS011;55146;47.468;18.806;2023-04-08T03:50:57;27.23;;;14.00;;
68300;SDS011;55146;47.468;18.806;2023-04-08T03:53:23;28.10;;;14.03;;
68300;SDS011;55146;47.468;18.806;2023-04-08T03:55:48;28.60;;;17.23;;
68300;SDS011;55146;47.468;18.806;2023-04-08T03:58:15;25.83;;;14.68;;
68300;SDS011;55146;47.468;18.806;2023-04-08T04:00:40;26.37;;;14.33;;
68300;SDS011;55146;47.468;18.806;2023-04-08T04:03:06;28.17;;;16.20;;
68300;SDS011;55146;47.468;18.806;2023-04-08T04:05:31;27.57;;;13.57;;
68300;SDS011;55146;47.468;18.806;2023-04-08T04:07:56;26.50;;;14.53;;
68300;SDS011;55146;47.468;18.806;2023-04-08T04:10:22;27.48;;;15.57;;
68300;SDS011;55146;47.468;18.806;2023-04-08T04:12:48;23.40;;;14.07;;
68300;SDS011;55146;47.468;18.806;2023-04-08T04:15:14;24.95;;;14.77;;
68300;SDS011;55146;47.468;18.806;2023-04-08T04:17:39;26.67;;;14.97;;
68300;SDS011;55146;47.468;18.806;2023-04-08T04:20:05;25.73;;;14.33;;
68300;SDS011;55146;47.468;18.806;2023-04-08T04:22:31;25.83;;;14.32;;
68300;SDS011;55146;47.468;18.806;2023-04-08T04:24:56;25.53;;;14.17;;
68300;SDS011;55146;47.468;18.806;2023-04-08T04:27:21;25.33;;;14.77;;
68300;SDS011;55146;47.468;18.806;2023-04-08T04:29:47;28.03;;;15.10;;
68300;SDS011;55146;47.468;18.806;2023-04-08T04:32:12;24.30;;;13.30;;
68300;SDS011;55146;47.468;18.806;2023-04-08T04:34:37;27.80;;;15.63;;
68300;SDS011;55146;47.468;18.806;2023-04-08T04:37:03;29.63;;;15.07;;
68300;SDS011;55146;47.468;18.806;2023-04-08T04:39:28;28.43;;;14.50;;
68300;SDS011;55146;47.468;18.806;2023-04-08T04:41:53;26.30;;;14.27;;
68300;SDS011;55146;47.468;18.806;2023-04-08T04:44:19;28.53;;;14.83;;
68300;SDS011;55146;47.468;18.806;2023-04-08T04:46:44;21.55;;;13.82;;
68300;SDS011;55146;47.468;18.806;2023-04-08T04:49:10;26.03;;;13.57;;
68300;SDS011;55146;47.468;18.806;2023-04-08T04:51:35;26.23;;;14.47;;
68300;SDS011;55146;47.468;18.806;2023-04-08T04:54:00;25.70;;;14.33;;
68300;SDS011;55146;47.468;18.806;2023-04-08T04:56:26;30.00;;;15.47;;
68300;SDS011;55146;47.468;18.806;2023-04-08T04:58:51;25.95;;;14.60;;
68300;SDS011;55146;47.468;18.806;2023-04-08T05:01:17;27.37;;;13.53;;
68300;SDS011;55146;47.468;18.806;2023-04-08T05:03:42;26.67;;;15.33;;
68300;SDS011;55146;47.468;18.806;2023-04-08T05:06:08;27.50;;;14.67;;
68300;SDS011;55146;47.468;18.806;2023-04-08T05:08:33;26.87;;;15.17;;
68300;SDS011;55146;47.468;18.806;2023-04-08T05:10:58;27.93;;;16.07;;
68300;SDS011;55146;47.468;18.806;2023-04-08T05:13:26;26.37;;;13.33;;
68300;SDS011;55146;47.468;18.806;2023-04-08T05:15:52;25.42;;;14.00;;
68300;SDS011;55146;47.468;18.806;2023-04-08T05:18:17;26.33;;;14.07;;
68300;SDS011;55146;47.468;18.806;2023-04-08T05:20:43;27.52;;;13.60;;
68300;SDS011;55146;47.468;18.806;2023-04-08T05:23:09;24.30;;;13.40;;
68300;SDS011;55146;47.468;18.806;2023-04-08T05:25:34;23.87;;;13.67;;
68300;SDS011;55146;47.468;18.806;2023-04-08T05:28:00;24.98;;;13.93;;
68300;SDS011;55146;47.468;18.806;2023-04-08T05:30:25;28.43;;;13.90;;
68300;SDS011;55146;47.468;18.806;2023-04-08T05:32:51;26.90;;;14.00;;
68300;SDS011;55146;47.468;18.806;2023-04-08T05:35:16;26.77;;;14.10;;
68300;SDS011;55146;47.468;18.806;2023-04-08T05:37:41;22.20;;;12.53;;
68300;SDS011;55146;47.468;18.806;2023-04-08T05:40:07;25.17;;;13.43;;
68300;SDS011;55146;47.468;18.806;2023-04-08T05:42:36;24.93;;;13.50;;
68300;SDS011;55146;47.468;18.806;2023-04-08T05:45:09;26.10;;;12.85;;
68300;SDS011;55146;47.468;18.806;2023-04-08T05:47:35;24.95;;;13.35;;
68300;SDS011;55146;47.468;18.806;2023-04-08T05:50:00;24.77;;;13.27;;
68300;SDS011;55146;47.468;18.806;2023-04-08T05:52:25;25.00;;;14.18;;
68300;SDS011;55146;47.468;18.806;2023-04-08T05:54:51;28.50;;;14.60;;
68300;SDS011;55146;47.468;18.806;2023-04-08T05:57:16;24.13;;;13.90;;
68300;SDS011;55146;47.468;18.806;2023-04-08T05:59:41;24.37;;;14.80;;
68300;SDS011;55146;47.468;18.806;2023-04-08T06:02:07;24.57;;;12.30;;
68300;SDS011;55146;47.468;18.806;2023-04-08T06:04:32;26.50;;;13.60;;
68300;SDS011;55146;47.468;18.806;2023-04-08T06:06:57;22.10;;;12.67;;
68300;SDS011;55146;47.468;18.806;2023-04-08T06:09:24;19.33;;;11.57;;
68300;SDS011;55146;47.468;18.806;2023-04-08T06:11:50;18.50;;;11.18;;
68300;SDS011;55146;47.468;18.806;2023-04-08T06:14:16;19.40;;;11.57;;
68300;SDS011;55146;47.468;18.806;2023-04-08T06:16:41;17.83;;;10.47;;
68300;SDS011;55146;47.468;18.806;2023-04-08T06:19:06;16.77;;;10.30;;
68300;SDS011;55146;47.468;18.806;2023-04-08T06:21:32;17.53;;;10.40;;
68300;SDS011;55146;47.468;18.806;2023-04-08T06:23:57;18.35;;;10.40;;
68300;SDS011;55146;47.468;18.806;2023-04-08T06:26:22;17.47;;;11.43;;
68300;SDS011;55146;47.468;18.806;2023-04-08T06:28:48;15.53;;;9.30;;
68300;SDS011;55146;47.468;18.806;2023-04-08T06:31:13;16.43;;;10.03;;
68300;SDS011;55146;47.468;18.806;2023-04-08T06:33:39;18.05;;;10.38;;
68300;SDS011;55146;47.468;18.806;2023-04-08T06:36:05;17.90;;;11.17;;
68300;SDS011;55146;47.468;18.806;2023-04-08T06:38:31;17.13;;;10.10;;
68300;SDS011;55146;47.468;18.806;2023-04-08T06:41:06;19.60;;;10.07;;
68300;SDS011;55146;47.468;18.806;2023-04-08T06:43:32;17.02;;;10.98;;
68300;SDS011;55146;47.468;18.806;2023-04-08T06:46:00;16.90;;;10.17;;
68300;SDS011;55146;47.468;18.806;2023-04-08T06:48:25;16.07;;;10.03;;
68300;SDS011;55146;47.468;18.806;2023-04-08T06:50:57;15.13;;;9.10;;
68300;SDS011;55146;47.468;18.806;2023-04-08T06:53:24;16.90;;;10.18;;
68300;SDS011;55146;47.468;18.806;2023-04-08T06:55:51;17.08;;;10.15;;
68300;SDS011;55146;47.468;18.806;2023-04-08T06:58:16;17.63;;;9.67;;
68300;SDS011;55146;47.468;18.806;2023-04-08T07:00:42;17.07;;;9.93;;
68300;SDS011;55146;47.468;18.806;2023-04-08T07:03:07;16.98;;;9.73;;
68300;SDS011;55146;47.468;18.806;2023-04-08T07:05:36;16.37;;;10.10;;
68300;SDS011;55146;47.468;18.806;2023-04-08T07:08:02;16.37;;;9.63;;
68300;SDS011;55146;47.468;18.806;2023-04-08T07:10:28;17.37;;;10.33;;
68300;SDS011;55146;47.468;18.806;2023-04-08T07:12:53;17.87;;;11.70;;
68300;SDS011;55146;47.468;18.806;2023-04-08T07:15:19;16.20;;;11.02;;
68300;SDS011;55146;47.468;18.806;2023-04-08T07:17:44;15.77;;;9.50;;
68300;SDS011;55146;47.468;18.806;2023-04-08T07:20:11;17.30;;;11.12;;
68300;SDS011;55146;47.468;18.806;2023-04-08T07:22:37;17.17;;;11.07;;
68300;SDS011;55146;47.468;18.806;2023-04-08T07:25:03;18.80;;;11.80;;
68300;SDS011;55146;47.468;18.806;2023-04-08T07:27:28;17.50;;;10.53;;
68300;SDS011;55146;47.468;18.806;2023-04-08T07:29:53;16.27;;;9.83;;
68300;SDS011;55146;47.468;18.806;2023-04-08T07:32:20;18.58;;;11.85;;
68300;SDS011;55146;47.468;18.806;2023-04-08T07:34:46;18.90;;;10.43;;
68300;SDS011;55146;47.468;18.806;2023-04-08T07:37:11;21.02;;;11.77;;
68300;SDS011;55146;47.468;18.806;2023-04-08T07:39:37;21.07;;;12.27;;
68300;SDS011;55146;47.468;18.806;2023-04-08T07:42:02;18.70;;;11.00;;
68300;SDS011;55146;47.468;18.806;2023-04-08T07:44:27;18.97;;;11.60;;
68300;SDS011;55146;47.468;18.806;2023-04-08T07:46:53;22.43;;;11.73;;
68300;SDS011;55146;47.468;18.806;2023-04-08T07:49:18;17.62;;;10.63;;
68300;SDS011;55146;47.468;18.806;2023-04-08T07:51:44;16.87;;;10.60;;
68300;SDS011;55146;47.468;18.806;2023-04-08T07:54:09;17.23;;;10.33;;
68300;SDS011;55146;47.468;18.806;2023-04-08T07:56:36;18.12;;;10.30;;
68300;SDS011;55146;47.468;18.806;2023-04-08T07:59:04;17.73;;;10.40;;
68300;SDS011;55146;47.468;18.806;2023-04-08T08:01:30;18.73;;;10.13;;
68300;SDS011;55146;47.468;18.806;2023-04-08T08:03:59;17.83;;;10.88;;
68300;SDS011;55146;47.468;18.806;2023-04-08T08:06:24;19.23;;;11.45;;
68300;SDS011;55146;47.468;18.806;2023-04-08T08:08:50;18.60;;;11.83;;
68300;SDS011;55146;47.468;18.806;2023-04-08T08:11:15;18.43;;;10.23;;
68300;SDS011;55146;47.468;18.806;2023-04-08T08:13:41;21.77;;;10.98;;
68300;SDS011;55146;47.468;18.806;2023-04-08T08:16:06;17.73;;;10.40;;
68300;SDS011;55146;47.468;18.806;2023-04-08T08:18:35;20.15;;;11.77;;
68300;SDS011;55146;47.468;18.806;2023-04-08T08:21:01;22.37;;;12.10;;
68300;SDS011;55146;47.468;18.806;2023-04-08T08:23:26;20.27;;;12.07;;
68300;SDS011;55146;47.468;18.806;2023-04-08T08:25:58;22.97;;;13.33;;
68300;SDS011;55146;47.468;18.806;2023-04-08T08:28:25;20.10;;;11.57;;
68300;SDS011;55146;47.468;18.806;2023-04-08T08:30:50;19.73;;;11.93;;
68300;SDS011;55146;47.468;18.806;2023-04-08T08:33:15;24.20;;;14.10;;
68300;SDS011;55146;47.468;18.806;2023-04-08T08:35:41;19.33;;;11.90;;
68300;SDS011;55146;47.468;18.806;2023-04-08T08:38:06;22.30;;;12.93;;
68300;SDS011;55146;47.468;18.806;2023-04-08T08:40:31;20.63;;;11.20;;
68300;SDS011;55146;47.468;18.806;2023-04-08T08:42:57;19.50;;;11.30;;
68300;SDS011;55146;47.468;18.806;2023-04-08T08:45:25;19.45;;;10.07;;
68300;SDS011;55146;47.468;18.806;2023-04-08T08:47:51;16.83;;;9.97;;
68300;SDS011;55146;47.468;18.806;2023-04-08T08:50:16;16.87;;;10.80;;
68300;SDS011;55146;47.468;18.806;2023-04-08T08:52:47;18.67;;;11.27;;
68300;SDS011;55146;47.468;18.806;2023-04-08T08:55:13;24.90;;;11.93;;
68300;SDS011;55146;47.468;18.806;2023-04-08T08:57:39;19.73;;;10.27;;
68300;SDS011;55146;47.468;18.806;2023-04-08T09:00:04;17.33;;;10.47;;
68300;SDS011;55146;47.468;18.806;2023-04-08T09:02:30;18.25;;;11.73;;
68300;SDS011;55146;47.468;18.806;2023-04-08T09:04:57;23.87;;;13.65;;
68300;SDS011;55146;47.468;18.806;2023-04-08T09:07:24;19.43;;;11.20;;
68300;SDS011;55146;47.468;18.806;2023-04-08T09:09:51;17.08;;;10.85;;
68300;SDS011;55146;47.468;18.806;2023-04-08T09:12:17;20.58;;;11.95;;
68300;SDS011;55146;47.468;18.806;2023-04-08T09:14:43;19.57;;;11.63;;
68300;SDS011;55146;47.468;18.806;2023-04-08T09:17:08;17.87;;;11.40;;
68300;SDS011;55146;47.468;18.806;2023-04-08T09:19:34;17.20;;;10.83;;
68300;SDS011;55146;47.468;18.806;2023-04-08T09:22:03;18.30;;;10.30;;
68300;SDS011;55146;47.468;18.806;2023-04-08T09:24:33;19.08;;;10.52;;
68300;SDS011;55146;47.468;18.806;2023-04-08T09:26:59;17.70;;;10.77;;
68300;SDS011;55146;47.468;18.806;2023-04-08T09:29:25;17.77;;;11.00;;
68300;SDS011;55146;47.468;18.806;2023-04-08T09:31:58;18.15;;;9.73;;
68300;SDS011;55146;47.468;18.806;2023-04-08T09:34:25;18.55;;;11.38;;
68300;SDS011;55146;47.468;18.806;2023-04-08T09:36:52;15.63;;;9.18;;
68300;SDS011;55146;47.468;18.806;2023-04-08T09:39:18;17.23;;;9.80;;
68300;SDS011;55146;47.468;18.806;2023-04-08T09:41:46;16.25;;;9.30;;
68300;SDS011;55146;47.468;18.806;2023-04-08T09:44:14;16.08;;;9.60;;
68300;SDS011;55146;47.468;18.806;2023-04-08T09:49:26;17.60;;;10.55;;
68300;SDS011;55146;47.468;18.806;2023-04-08T09:54:31;18.80;;;11.35;;
68300;SDS011;55146;47.468;18.806;2023-04-08T09:57:09;18.52;;;11.15;;
68300;SDS011;55146;47.468;18.806;2023-04-08T09:59:37;15.60;;;9.98;;
68300;SDS011;55146;47.468;18.806;2023-04-08T10:02:13;16.87;;;10.13;;
68300;SDS011;55146;47.468;18.806;2023-04-08T10:04:43;17.53;;;10.97;;
68300;SDS011;55146;47.468;18.806;2023-04-08T10:07:12;21.30;;;13.32;;
68300;SDS011;55146;47.468;18.806;2023-04-08T10:09:38;22.65;;;13.88;;
68300;SDS011;55146;47.468;18.806;2023-04-08T10:12:07;21.65;;;12.82;;
68300;SDS011;55146;47.468;18.806;2023-04-08T10:14:33;18.70;;;11.75;;
68300;SDS011;55146;47.468;18.806;2023-04-08T10:19:52;19.35;;;11.55;;
68300;SDS011;55146;47.468;18.806;2023-04-08T10:27:40;18.10;;;10.93;;
68300;SDS011;55146;47.468;18.806;2023-04-08T10:32:50;18.33;;;11.25;;
68300;SDS011;55146;47.468;18.806;2023-04-08T10:35:15;19.00;;;12.13;;
68300;SDS011;55146;47.468;18.806;2023-04-08T10:37:41;20.50;;;11.50;;
68300;SDS011;55146;47.468;18.806;2023-04-08T10:40:17;17.67;;;11.95;;
68300;SDS011;55146;47.468;18.806;2023-04-08T10:42:43;19.52;;;11.93;;
68300;SDS011;55146;47.468;18.806;2023-04-08T10:45:08;17.27;;;10.70;;
68300;SDS011;55146;47.468;18.806;2023-04-08T10:47:34;18.17;;;11.30;;
68300;SDS011;55146;47.468;18.806;2023-04-08T10:50:00;16.60;;;11.23;;
68300;SDS011;55146;47.468;18.806;2023-04-08T10:52:46;18.37;;;12.80;;
68300;SDS011;55146;47.468;18.806;2023-04-08T10:55:16;19.58;;;12.25;;
68300;SDS011;55146;47.468;18.806;2023-04-08T10:57:48;19.40;;;12.65;;
68300;SDS011;55146;47.468;18.806;2023-04-08T11:00:18;18.70;;;11.15;;
68300;SDS011;55146;47.468;18.806;2023-04-08T11:02:59;21.63;;;11.63;;
68300;SDS011;55146;47.468;18.806;2023-04-08T11:05:25;19.08;;;11.57;;
68300;SDS011;55146;47.468;18.806;2023-04-08T11:07:51;28.62;;;16.92;;
68300;SDS011;55146;47.468;18.806;2023-04-08T11:10:16;28.20;;;15.53;;
68300;SDS011;55146;47.468;18.806;2023-04-08T11:12:42;19.53;;;13.23;;
68300;SDS011;55146;47.468;18.806;2023-04-08T11:15:08;18.40;;;11.07;;
68300;SDS011;55146;47.468;18.806;2023-04-08T11:17:34;17.73;;;12.07;;
68300;SDS011;55146;47.468;18.806;2023-04-08T11:20:00;16.30;;;11.20;;
68300;SDS011;55146;47.468;18.806;2023-04-08T11:22:30;19.27;;;11.38;;
68300;SDS011;55146;47.468;18.806;2023-04-08T11:24:57;18.33;;;11.50;;
68300;SDS011;55146;47.468;18.806;2023-04-08T11:27:23;18.65;;;12.45;;
68300;SDS011;55146;47.468;18.806;2023-04-08T11:29:50;17.92;;;10.98;;
68300;SDS011;55146;47.468;18.806;2023-04-08T11:32:17;17.75;;;11.85;;
68300;SDS011;55146;47.468;18.806;2023-04-08T11:34:44;20.00;;;12.30;;
68300;SDS011;55146;47.468;18.806;2023-04-08T11:37:11;18.43;;;13.03;;
68300;SDS011;55146;47.468;18.806;2023-04-08T11:39:41;18.23;;;12.23;;
68300;SDS011;55146;47.468;18.806;2023-04-08T11:42:07;19.67;;;12.07;;
68300;SDS011;55146;47.468;18.806;2023-04-08T11:44:32;20.80;;;12.48;;
68300;SDS011;55146;47.468;18.806;2023-04-08T11:46:58;19.97;;;12.47;;
68300;SDS011;55146;47.468;18.806;2023-04-08T11:49:25;20.12;;;12.88;;
68300;SDS011;55146;47.468;18.806;2023-04-08T11:51:58;18.77;;;13.17;;
68300;SDS011;55146;47.468;18.806;2023-04-08T11:54:25;22.55;;;13.23;;
68300;SDS011;55146;47.468;18.806;2023-04-08T11:56:52;19.92;;;12.73;;
68300;SDS011;55146;47.468;18.806;2023-04-08T11:59:17;23.57;;;13.53;;
68300;SDS011;55146;47.468;18.806;2023-04-08T12:01:43;19.97;;;14.60;;
68300;SDS011;55146;47.468;18.806;2023-04-08T12:04:09;21.20;;;13.53;;
68300;SDS011;55146;47.468;18.806;2023-04-08T12:06:35;23.30;;;14.30;;
68300;SDS011;55146;47.468;18.806;2023-04-08T12:09:00;23.60;;;14.45;;
68300;SDS011;55146;47.468;18.806;2023-04-08T12:11:25;22.93;;;14.10;;
68300;SDS011;55146;47.468;18.806;2023-04-08T12:13:51;23.80;;;14.97;;
68300;SDS011;55146;47.468;18.806;2023-04-08T12:16:17;20.83;;;13.70;;
68300;SDS011;55146;47.468;18.806;2023-04-08T12:18:43;20.77;;;13.88;;
68300;SDS011;55146;47.468;18.806;2023-04-08T12:21:08;20.40;;;12.53;;
68300;SDS011;55146;47.468;18.806;2023-04-08T12:23:34;20.87;;;13.33;;
68300;SDS011;55146;47.468;18.806;2023-04-08T12:26:00;21.33;;;13.07;;
68300;SDS011;55146;47.468;18.806;2023-04-08T12:28:25;19.25;;;12.23;;
68300;SDS011;55146;47.468;18.806;2023-04-08T12:30:50;21.67;;;13.13;;
68300;SDS011;55146;47.468;18.806;2023-04-08T12:33:16;21.73;;;13.97;;
68300;SDS011;55146;47.468;18.806;2023-04-08T12:35:41;20.87;;;13.37;;
68300;SDS011;55146;47.468;18.806;2023-04-08T12:38:07;20.05;;;13.57;;
68300;SDS011;55146;47.468;18.806;2023-04-08T12:40:32;22.23;;;14.03;;
68300;SDS011;55146;47.468;18.806;2023-04-08T12:42:58;23.27;;;14.40;;
68300;SDS011;55146;47.468;18.806;2023-04-08T12:45:23;20.60;;;13.10;;
68300;SDS011;55146;47.468;18.806;2023-04-08T12:47:48;19.63;;;12.67;;
68300;SDS011;55146;47.468;18.806;2023-04-08T12:50:14;19.73;;;12.30;;
68300;SDS011;55146;47.468;18.806;2023-04-08T12:52:40;19.33;;;12.73;;
68300;SDS011;55146;47.468;18.806;2023-04-08T12:55:06;22.27;;;14.48;;
68300;SDS011;55146;47.468;18.806;2023-04-08T12:57:31;20.80;;;13.07;;
68300;SDS011;55146;47.468;18.806;2023-04-08T12:59:57;19.77;;;14.00;;
68300;SDS011;55146;47.468;18.806;2023-04-08T13:02:22;23.83;;;14.83;;
68300;SDS011;55146;47.468;18.806;2023-04-08T13:04:49;20.42;;;14.02;;
68300;SDS011;55146;47.468;18.806;2023-04-08T13:07:17;21.25;;;14.40;;
68300;SDS011;55146;47.468;18.806;2023-04-08T13:09:42;22.00;;;15.23;;
68300;SDS011;55146;47.468;18.806;2023-04-08T13:12:07;22.43;;;14.30;;
68300;SDS011;55146;47.468;18.806;2023-04-08T13:14:33;20.63;;;13.67;;
68300;SDS011;55146;47.468;18.806;2023-04-08T13:16:58;24.20;;;14.10;;
68300;SDS011;55146;47.468;18.806;2023-04-08T13:19:23;18.47;;;12.07;;
68300;SDS011;55146;47.468;18.806;2023-04-08T13:21:49;17.85;;;13.15;;
68300;SDS011;55146;47.468;18.806;2023-04-08T13:24:14;18.93;;;13.50;;
68300;SDS011;55146;47.468;18.806;2023-04-08T13:26:40;19.90;;;13.82;;
68300;SDS011;55146;47.468;18.806;2023-04-08T13:29:06;22.60;;;13.70;;
68300;SDS011;55146;47.468;18.806;2023-04-08T13:31:31;20.13;;;14.37;;
68300;SDS011;55146;47.468;18.806;2023-04-08T13:33:56;22.27;;;14.63;;
68300;SDS011;55146;47.468;18.806;2023-04-08T13:36:22;19.30;;;12.43;;
68300;SDS011;55146;47.468;18.806;2023-04-08T13:38:47;17.08;;;11.65;;
68300;SDS011;55146;47.468;18.806;2023-04-08T13:41:12;15.27;;;10.77;;
68300;SDS011;55146;47.468;18.806;2023-04-08T13:43:38;17.97;;;11.37;;
68300;SDS011;55146;47.468;18.806;2023-04-08T13:46:03;18.47;;;13.53;;
68300;SDS011;55146;47.468;18.806;2023-04-08T13:48:29;17.20;;;11.70;;
68300;SDS011;55146;47.468;18.806;2023-04-08T13:50:54;16.12;;;10.57;;
68300;SDS011;55146;47.468;18.806;2023-04-08T13:53:20;16.17;;;11.30;;
68300;SDS011;55146;47.468;18.806;2023-04-08T13:55:45;16.60;;;10.97;;
68300;SDS011;55146;47.468;18.806;2023-04-08T13:58:10;18.07;;;10.70;;
68300;SDS011;55146;47.468;18.806;2023-04-08T14:00:36;17.53;;;11.13;;
68300;SDS011;55146;47.468;18.806;2023-04-08T14:03:01;18.57;;;12.17;;
68300;SDS011;55146;47.468;18.806;2023-04-08T14:05:27;19.77;;;12.65;;
68300;SDS011;55146;47.468;18.806;2023-04-08T14:07:53;17.23;;;11.53;;
68300;SDS011;55146;47.468;18.806;2023-04-08T14:10:18;18.37;;;11.93;;
68300;SDS011;55146;47.468;18.806;2023-04-08T14:12:44;19.30;;;13.37;;
68300;SDS011;55146;47.468;18.806;2023-04-08T14:15:10;17.37;;;11.32;;
68300;SDS011;55146;47.468;18.806;2023-04-08T14:17:36;21.07;;;12.00;;
68300;SDS011;55146;47.468;18.806;2023-04-08T14:20:01;17.58;;;11.32;;
68300;SDS011;55146;47.468;18.806;2023-04-08T14:22:29;18.43;;;12.33;;
68300;SDS011;55146;47.468;18.806;2023-04-08T14:24:54;18.37;;;12.75;;
68300;SDS011;55146;47.468;18.806;2023-04-08T14:27:20;20.30;;;12.60;;